createdAt,value
2018-11-29T00:01:12.834Z,48.17
2018-11-29T00:03:41.088Z,53.00
2018-11-29T00:06:09.408Z,52.03
2018-11-29T00:08:37.630Z,47.30
2018-11-29T00:11:06.142Z,49.27
2018-11-29T00:13:34.385Z,49.42
2018-11-29T00:16:02.577Z,51.50
2018-11-29T00:18:30.883Z,51.83
2018-11-29T00:20:59.258Z,53.05
2018-11-29T00:23:27.465Z,54.63
2018-11-29T00:25:56.217Z,51.20
2018-11-29T00:28:24.453Z,54.50
2018-11-29T00:30:52.701Z,50.60
2018-11-29T00:33:20.920Z,59.55
2018-11-29T00:35:49.516Z,57.10
2018-11-29T00:38:17.744Z,51.70
2018-11-29T00:40:46.017Z,55.80
2018-11-29T00:43:14.403Z,49.47
2018-11-29T00:45:42.619Z,55.63
2018-11-29T00:48:10.977Z,52.78
2018-11-29T00:50:39.301Z,53.60
2018-11-29T00:53:08.586Z,53.00
2018-11-29T00:55:36.878Z,54.40
2018-11-29T00:58:05.383Z,57.30
2018-11-29T01:00:33.686Z,52.45
2018-11-29T01:03:01.934Z,51.77
2018-11-29T01:05:30.995Z,50.23
2018-11-29T01:08:00.537Z,56.63
2018-11-29T01:10:28.941Z,57.15
2018-11-29T01:12:57.206Z,47.58
2018-11-29T01:15:25.470Z,52.35
2018-11-29T01:17:53.734Z,52.67
2018-11-29T01:20:22.229Z,51.35
2018-11-29T01:22:50.470Z,51.15
2018-11-29T01:25:18.709Z,51.20
2018-11-29T01:27:49.058Z,50.10
2018-11-29T01:30:18.202Z,50.50
2018-11-29T01:32:46.398Z,48.17
2018-11-29T01:35:15.758Z,49.67
2018-11-29T01:37:45.202Z,56.37
2018-11-29T01:40:17.206Z,50.88
2018-11-29T01:42:47.090Z,50.65
2018-11-29T01:45:15.567Z,52.78
2018-11-29T01:47:43.780Z,53.08
2018-11-29T01:50:12.045Z,54.85
2018-11-29T01:52:40.257Z,46.20
2018-11-29T01:55:09.194Z,50.90
2018-11-29T01:57:37.448Z,49.13
2018-11-29T02:00:08.183Z,47.23
2018-11-29T02:02:36.383Z,47.25
2018-11-29T02:05:05.177Z,48.73
2018-11-29T02:07:33.470Z,47.17
2018-11-29T02:10:07.234Z,46.98
2018-11-29T02:12:35.435Z,46.42
2018-11-29T02:15:03.702Z,49.88
2018-11-29T02:17:31.916Z,48.00
2018-11-29T02:20:00.154Z,49.42
2018-11-29T02:22:28.337Z,45.25
2018-11-29T02:24:56.551Z,51.60
2018-11-29T02:27:24.776Z,45.23
2018-11-29T02:29:53.015Z,45.15
2018-11-29T02:32:21.229Z,52.13
2018-11-29T02:52:05.757Z,42.20
2018-11-29T02:54:33.945Z,42.95
2018-11-29T02:57:02.234Z,45.00
2018-11-29T02:59:30.584Z,46.00
2018-11-29T03:01:58.828Z,46.28
2018-11-29T03:04:27.074Z,38.90
2018-11-29T03:06:55.286Z,43.73
2018-11-29T03:09:23.555Z,43.55
2018-11-29T03:11:51.794Z,42.83
2018-11-29T03:14:20.034Z,45.20
2018-11-29T03:16:48.257Z,43.48
2018-11-29T03:19:16.482Z,42.70
2018-11-29T03:21:44.683Z,43.08
2018-11-29T03:24:12.973Z,42.60
2018-11-29T03:26:41.211Z,43.05
2018-11-29T03:29:09.446Z,43.92
2018-11-29T03:31:37.647Z,46.02
2018-11-29T03:34:06.937Z,42.55
2018-11-29T03:36:35.383Z,40.03
2018-11-29T03:39:03.720Z,40.20
2018-11-29T03:41:31.941Z,40.58
2018-11-29T03:44:00.193Z,43.10
2018-11-29T03:46:28.473Z,40.55
2018-11-29T03:48:56.728Z,41.27
2018-11-29T03:51:25.036Z,39.70
2018-11-29T03:53:53.234Z,41.50
2018-11-29T03:56:21.481Z,43.83
2018-11-29T03:58:49.777Z,39.78
2018-11-29T04:01:18.047Z,41.00
2018-11-29T04:03:46.341Z,39.63
2018-11-29T04:06:14.557Z,41.35
2018-11-29T04:08:42.802Z,39.87
2018-11-29T04:11:11.560Z,39.35
2018-11-29T04:13:39.883Z,41.60
2018-11-29T04:16:08.116Z,43.70
2018-11-29T04:18:36.448Z,41.45
2018-11-29T04:21:04.726Z,41.70
2018-11-29T04:23:32.954Z,41.42
2018-11-29T04:26:01.313Z,40.60
2018-11-29T04:28:29.578Z,42.67
2018-11-29T04:30:57.786Z,39.23
2018-11-29T04:33:26.236Z,40.30
2018-11-29T04:35:54.589Z,38.35
2018-11-29T04:38:22.783Z,36.83
2018-11-29T04:40:51.154Z,41.13
2018-11-29T04:43:19.515Z,36.53
2018-11-29T04:45:58.971Z,39.08
2018-11-29T04:48:27.347Z,38.25
2018-11-29T04:50:55.609Z,39.87
2018-11-29T04:53:24.097Z,38.67
2018-11-29T04:55:52.450Z,39.60
2018-11-29T04:58:20.757Z,41.50
2018-11-29T05:00:49.113Z,35.38
2018-11-29T05:03:17.330Z,38.40
2018-11-29T05:05:45.610Z,40.25
2018-11-29T05:08:13.882Z,35.00
2018-11-29T05:10:42.133Z,40.88
2018-11-29T05:13:10.379Z,37.93
2018-11-29T05:15:38.640Z,37.73
2018-11-29T05:18:06.846Z,36.10
2018-11-29T05:20:35.127Z,38.15
2018-11-29T05:23:03.598Z,37.47
2018-11-29T05:25:31.862Z,33.80
2018-11-29T05:28:00.054Z,36.28
2018-11-29T05:30:28.385Z,37.00
2018-11-29T05:32:56.622Z,34.88
2018-11-29T05:35:24.875Z,36.50
2018-11-29T05:37:53.079Z,34.20
2018-11-29T05:40:21.313Z,36.73
2018-11-29T05:42:49.596Z,33.40
2018-11-29T05:45:17.843Z,36.30
2018-11-29T05:47:46.083Z,37.23
2018-11-29T05:50:14.278Z,35.55
2018-11-29T05:52:50.449Z,36.17
2018-11-29T05:55:18.840Z,34.00
2018-11-29T05:57:47.060Z,35.33
2018-11-29T06:00:15.294Z,35.28
2018-11-29T06:02:43.966Z,35.98
2018-11-29T06:05:13.574Z,37.05
2018-11-29T06:07:41.804Z,34.78
2018-11-29T06:10:09.996Z,36.42
2018-11-29T06:12:38.305Z,38.78
2018-11-29T06:15:08.094Z,39.98
2018-11-29T06:17:36.383Z,38.80
2018-11-29T06:20:05.185Z,33.98
2018-11-29T06:22:33.667Z,35.08
2018-11-29T06:25:01.920Z,33.73
2018-11-29T06:27:30.239Z,39.45
2018-11-29T06:29:58.459Z,33.70
2018-11-29T06:32:26.704Z,35.85
2018-11-29T06:34:54.959Z,35.88
2018-11-29T06:37:23.347Z,35.13
2018-11-29T06:39:51.541Z,33.20
2018-11-29T06:42:19.778Z,35.08
2018-11-29T06:44:48.035Z,32.48
2018-11-29T06:47:16.266Z,45.35
2018-11-29T06:49:44.479Z,40.25
2018-11-29T06:52:12.746Z,39.30
2018-11-29T06:54:41.115Z,37.40
2018-11-29T06:57:09.324Z,38.05
2018-11-29T06:59:37.571Z,31.70
2018-11-29T07:02:06.097Z,43.48
2018-11-29T07:04:34.684Z,36.55
2018-11-29T07:07:03.033Z,36.10
2018-11-29T07:09:31.289Z,31.95
2018-11-29T07:11:59.562Z,32.95
2018-11-29T07:14:27.854Z,31.85
2018-11-29T07:16:56.123Z,35.13
2018-11-29T07:19:24.397Z,37.93
2018-11-29T07:21:53.748Z,33.38
2018-11-29T07:24:22.601Z,32.67
2018-11-29T07:26:50.952Z,38.15
2018-11-29T07:29:20.382Z,40.25
2018-11-29T07:31:48.947Z,35.48
2018-11-29T07:34:17.243Z,31.60
2018-11-29T07:36:45.644Z,33.50
2018-11-29T07:39:14.159Z,32.53
2018-11-29T07:41:42.508Z,35.63
2018-11-29T07:44:10.957Z,37.75
2018-11-29T07:46:39.355Z,31.27
2018-11-29T07:49:07.870Z,35.65
2018-11-29T07:51:36.428Z,30.65
2018-11-29T07:54:05.087Z,29.85
2018-11-29T07:56:33.677Z,32.25
2018-11-29T07:59:02.174Z,31.15
2018-11-29T08:01:30.639Z,29.15
2018-11-29T08:03:59.078Z,31.93
2018-11-29T08:06:27.602Z,33.13
2018-11-29T08:08:55.934Z,31.75
2018-11-29T08:11:24.163Z,35.05
2018-11-29T08:13:52.448Z,28.53
2018-11-29T08:16:20.726Z,34.90
2018-11-29T08:18:48.974Z,33.47
2018-11-29T08:21:17.301Z,31.80
2018-11-29T08:23:45.768Z,28.47
2018-11-29T08:26:14.089Z,34.80
2018-11-29T08:28:42.372Z,32.20
2018-11-29T08:31:11.923Z,33.63
2018-11-29T08:33:40.236Z,37.17
2018-11-29T08:36:08.480Z,33.13
2018-11-29T08:38:36.823Z,30.35
2018-11-29T08:41:05.130Z,33.85
2018-11-29T08:43:33.446Z,32.17
2018-11-29T08:46:01.745Z,35.85
2018-11-29T08:48:29.998Z,33.92
2018-11-29T08:50:58.273Z,31.57
2018-11-29T08:53:26.823Z,32.65
2018-11-29T08:55:55.000Z,31.30
2018-11-29T08:58:23.372Z,31.45
2018-11-29T09:00:51.659Z,27.77
2018-11-29T09:03:20.071Z,29.12
2018-11-29T09:05:48.287Z,30.80
2018-11-29T09:08:16.647Z,31.65
2018-11-29T09:10:44.931Z,31.77
2018-11-29T09:13:13.287Z,31.90
2018-11-29T09:15:41.568Z,29.75
2018-11-29T09:18:09.781Z,30.57
2018-11-29T09:20:38.087Z,27.98
2018-11-29T09:23:06.955Z,29.15
2018-11-29T09:25:35.481Z,36.05
2018-11-29T09:28:03.667Z,33.45
2018-11-29T09:30:31.936Z,30.35
2018-11-29T09:33:00.176Z,31.70
2018-11-29T09:35:28.802Z,26.30
2018-11-29T09:37:57.598Z,29.45
2018-11-29T09:40:26.100Z,30.35
2018-11-29T09:42:54.499Z,29.02
2018-11-29T09:45:23.470Z,30.75
2018-11-29T09:47:53.549Z,31.80
2018-11-29T09:50:21.942Z,29.77
2018-11-29T09:52:50.147Z,30.72
2018-11-29T09:55:18.382Z,28.55
2018-11-29T09:57:47.578Z,28.95
2018-11-29T10:00:28.579Z,35.30
2018-11-29T10:03:04.058Z,32.35
2018-11-29T10:05:32.420Z,28.63
2018-11-29T10:08:00.736Z,34.05
2018-11-29T10:10:29.039Z,31.10
2018-11-29T10:12:57.330Z,29.40
2018-11-29T10:15:25.647Z,30.00
2018-11-29T10:17:53.927Z,33.80
2018-11-29T10:20:22.464Z,30.03
2018-11-29T10:22:50.724Z,31.70
2018-11-29T10:25:19.035Z,34.67
2018-11-29T10:27:49.315Z,31.68
2018-11-29T10:30:22.267Z,28.05
2018-11-29T10:32:50.724Z,27.13
2018-11-29T10:35:19.002Z,32.30
2018-11-29T10:37:47.262Z,30.23
2018-11-29T10:40:15.503Z,28.17
2018-11-29T10:42:43.792Z,27.52
2018-11-29T10:45:14.123Z,32.15
2018-11-29T10:47:43.298Z,29.32
2018-11-29T10:50:12.657Z,24.70
2018-11-29T10:52:40.929Z,31.20
2018-11-29T10:55:12.372Z,27.10
2018-11-29T10:57:40.992Z,26.60
2018-11-29T11:00:25.517Z,20.35
2018-11-29T11:03:00.343Z,24.55
2018-11-29T11:05:28.605Z,25.20
2018-11-29T11:07:56.897Z,24.72
2018-11-29T11:10:25.052Z,24.92
2018-11-29T11:12:53.361Z,30.95
2018-11-29T11:15:21.633Z,25.02
2018-11-29T11:17:50.040Z,30.00
2018-11-29T11:20:18.290Z,27.00
2018-11-29T11:22:46.587Z,28.70
2018-11-29T11:25:14.826Z,32.30
2018-11-29T11:27:43.048Z,31.82
2018-11-29T11:30:13.342Z,29.48
2018-11-29T11:32:41.769Z,28.52
2018-11-29T11:35:10.404Z,26.27
2018-11-29T11:37:38.728Z,27.13
2018-11-29T11:40:09.701Z,30.27
2018-11-29T11:42:38.030Z,25.40
2018-11-29T11:45:09.953Z,28.32
2018-11-29T11:47:38.140Z,23.12
2018-11-29T11:50:13.071Z,27.55
2018-11-29T11:52:41.310Z,28.52
2018-11-29T11:55:10.007Z,33.50
2018-11-29T11:57:39.313Z,28.62
2018-11-29T12:00:14.952Z,26.42
2018-11-29T12:02:43.810Z,31.07
2018-11-29T12:05:12.484Z,29.87
2018-11-29T12:07:41.179Z,27.48
2018-11-29T12:10:11.707Z,27.50
2018-11-29T12:12:40.121Z,28.95
2018-11-29T12:15:10.497Z,28.38
2018-11-29T12:17:38.952Z,27.02
2018-11-29T12:20:10.274Z,27.73
2018-11-29T12:22:38.573Z,27.17
2018-11-29T12:25:08.356Z,25.15
2018-11-29T12:27:36.610Z,25.12
2018-11-29T12:30:10.369Z,23.30
2018-11-29T12:32:39.404Z,21.80
2018-11-29T12:35:07.721Z,21.42
2018-11-29T12:37:35.970Z,27.00
2018-11-29T12:40:04.474Z,27.67
2018-11-29T12:42:33.868Z,27.65
2018-11-29T12:45:02.258Z,27.35
2018-11-29T12:47:30.435Z,25.10
2018-11-29T12:49:58.671Z,28.23
2018-11-29T12:52:26.978Z,26.75
2018-11-29T12:54:55.188Z,27.10
2018-11-29T12:57:23.367Z,28.50
2018-11-29T12:59:52.070Z,29.60
2018-11-29T13:02:20.297Z,26.63
2018-11-29T13:04:48.521Z,26.12
2018-11-29T13:07:23.475Z,23.87
2018-11-29T13:09:51.649Z,25.25
2018-11-29T13:12:19.880Z,22.77
2018-11-29T13:14:52.218Z,23.62
2018-11-29T13:17:20.468Z,24.90
2018-11-29T13:19:48.773Z,23.90
2018-11-29T13:22:16.978Z,23.22
2018-11-29T13:24:45.288Z,24.53
2018-11-29T13:27:13.570Z,25.17
2018-11-29T13:29:41.774Z,22.73
2018-11-29T13:32:10.039Z,24.45
2018-11-29T13:34:38.270Z,22.75
2018-11-29T13:37:06.566Z,24.02
2018-11-29T13:39:34.843Z,22.58
2018-11-29T13:42:03.179Z,23.18
2018-11-29T13:44:31.462Z,24.75
2018-11-29T13:46:59.746Z,20.52
2018-11-29T13:49:28.041Z,22.65
2018-11-29T13:51:56.305Z,25.72
2018-11-29T13:54:24.577Z,25.60
2018-11-29T13:56:52.853Z,21.60
2018-11-29T13:59:21.035Z,28.73
2018-11-29T14:01:49.246Z,21.25
2018-11-29T14:04:17.418Z,22.37
2018-11-29T14:06:45.630Z,25.10
2018-11-29T14:09:13.835Z,24.27
2018-11-29T14:11:42.115Z,25.43
2018-11-29T14:14:10.435Z,23.27
2018-11-29T14:16:38.664Z,24.37
2018-11-29T14:19:06.874Z,25.30
2018-11-29T14:21:35.187Z,19.67
2018-11-29T14:24:03.499Z,23.40
2018-11-29T14:26:31.767Z,25.25
2018-11-29T14:29:00.037Z,20.57
2018-11-29T14:31:28.228Z,26.68
2018-11-29T14:33:56.496Z,23.43
2018-11-29T14:36:24.794Z,24.50
2018-11-29T14:38:53.039Z,25.57
2018-11-29T14:41:21.329Z,25.17
2018-11-29T14:43:49.534Z,28.83
2018-11-29T14:46:17.729Z,22.98
2018-11-29T14:48:45.964Z,25.60
2018-11-29T14:51:14.181Z,20.90
2018-11-29T14:53:42.370Z,23.25
2018-11-29T14:56:10.619Z,21.42
2018-11-29T14:58:38.930Z,24.72
2018-11-29T15:01:07.951Z,24.55
2018-11-29T15:03:36.216Z,23.38
2018-11-29T15:06:04.409Z,26.83
2018-11-29T15:08:32.613Z,22.45
2018-11-29T15:11:01.264Z,27.93
2018-11-29T15:13:29.495Z,28.90
2018-11-29T15:15:57.857Z,27.27
2018-11-29T15:18:26.093Z,28.35
2018-11-29T15:20:54.361Z,25.85
2018-11-29T15:23:22.599Z,23.47
2018-11-29T15:25:50.889Z,26.85
2018-11-29T15:28:19.169Z,24.73
2018-11-29T15:30:47.423Z,23.65
2018-11-29T15:33:15.659Z,25.62
2018-11-29T15:35:43.880Z,27.87
2018-11-29T15:38:12.248Z,23.27
2018-11-29T15:40:40.773Z,22.75
2018-11-29T15:43:09.110Z,23.02
2018-11-29T15:45:37.692Z,21.77
2018-11-29T15:48:06.042Z,24.30
2018-11-29T15:50:34.390Z,26.02
2018-11-29T15:53:02.880Z,26.42
2018-11-29T15:55:31.269Z,26.65
2018-11-29T15:57:59.633Z,30.10
2018-11-29T16:00:30.655Z,28.27
2018-11-29T16:03:02.095Z,26.70
2018-11-29T16:05:30.690Z,22.90
2018-11-29T16:07:59.014Z,24.57
2018-11-29T16:10:27.638Z,22.58
2018-11-29T16:12:55.909Z,26.10
2018-11-29T16:15:24.188Z,28.07
2018-11-29T16:17:53.035Z,24.75
2018-11-29T16:20:27.406Z,24.50
2018-11-29T16:22:55.814Z,25.00
2018-11-29T16:25:24.091Z,23.65
2018-11-29T16:27:52.464Z,23.83
2018-11-29T16:30:24.114Z,23.00
2018-11-29T16:32:52.519Z,26.12
2018-11-29T16:35:20.744Z,25.15
2018-11-29T16:37:48.974Z,28.62
2018-11-29T16:40:17.551Z,23.75
2018-11-29T16:42:45.643Z,25.45
2018-11-29T16:45:14.123Z,22.90
2018-11-29T16:47:42.867Z,22.60
2018-11-29T16:50:12.636Z,21.40
2018-11-29T16:52:40.964Z,22.70
2018-11-29T16:55:10.267Z,22.30
2018-11-29T16:57:40.196Z,22.48
2018-11-29T17:00:13.381Z,23.27
2018-11-29T17:02:41.888Z,21.17
2018-11-29T17:05:12.508Z,21.73
2018-11-29T17:07:42.021Z,23.83
2018-11-29T17:10:12.964Z,21.20
2018-11-29T17:12:42.555Z,22.60
2018-11-29T17:15:13.094Z,18.65
2018-11-29T17:17:41.709Z,19.65
2018-11-29T17:20:11.715Z,21.47
2018-11-29T17:22:40.470Z,20.17
2018-11-29T17:25:10.218Z,20.17
2018-11-29T17:27:38.796Z,20.03
2018-11-29T17:30:11.940Z,25.25
2018-11-29T17:32:40.247Z,24.20
2018-11-29T17:35:08.606Z,29.67
2018-11-29T17:37:36.840Z,22.25
2018-11-29T17:40:09.131Z,19.05
2018-11-29T17:42:37.400Z,21.73
2018-11-29T17:45:07.785Z,25.40
2018-11-29T17:49:05.694Z,20.17
2018-11-29T17:51:34.002Z,18.73
2018-11-29T17:54:02.257Z,20.12
2018-11-29T17:56:30.492Z,24.15
2018-11-29T17:58:58.777Z,18.37
2018-11-29T18:01:27.001Z,20.32
2018-11-29T18:03:55.280Z,18.73
2018-11-29T18:06:23.523Z,23.10
2018-11-29T18:08:51.870Z,20.97
2018-11-29T18:11:20.122Z,23.98
2018-11-29T18:13:48.423Z,19.60
2018-11-29T18:16:16.697Z,20.57
2018-11-29T18:18:44.921Z,20.75
2018-11-29T18:21:13.329Z,18.90
2018-11-29T18:23:46.864Z,19.40
2018-11-29T18:26:09.919Z,19.30
2018-11-29T18:28:38.227Z,16.70
2018-11-29T18:31:06.506Z,19.02
2018-11-29T18:33:34.751Z,18.55
2018-11-29T18:36:03.129Z,22.15
2018-11-29T18:38:31.360Z,21.35
2018-11-29T18:40:59.686Z,21.33
2018-11-29T18:43:28.039Z,17.87
2018-11-29T18:45:56.294Z,19.95
2018-11-29T18:48:24.508Z,20.77
2018-11-29T18:50:52.780Z,18.23
2018-11-29T18:53:25.512Z,19.50
2018-11-29T18:56:00.486Z,17.35
2018-11-29T18:58:25.969Z,19.40
2018-11-29T19:00:54.317Z,18.45
2018-11-29T19:03:22.776Z,24.50
2018-11-29T19:05:51.333Z,18.92
2018-11-29T19:08:19.811Z,19.52
2018-11-29T19:10:48.177Z,19.42
2018-11-29T19:13:16.440Z,19.15
2018-11-29T19:15:44.772Z,16.80
2018-11-29T19:18:13.008Z,18.45
2018-11-29T19:20:41.349Z,16.48
2018-11-29T19:23:09.660Z,19.70
2018-11-29T19:25:38.042Z,19.57
2018-11-29T19:28:06.951Z,23.52
2018-11-29T19:30:35.595Z,19.40
2018-11-29T19:33:10.756Z,21.82
2018-11-29T19:52:56.887Z,19.60
2018-11-29T19:55:27.404Z,15.15
2018-11-29T19:57:55.877Z,16.90
2018-11-29T20:00:24.202Z,15.72
2018-11-29T20:02:53.740Z,16.35
2018-11-29T20:05:22.104Z,19.37
2018-11-29T20:07:50.947Z,16.82
2018-11-29T20:10:19.982Z,20.23
2018-11-29T20:12:53.974Z,15.88
2018-11-29T20:15:22.236Z,17.30
2018-11-29T20:17:50.557Z,16.85
2018-11-29T20:20:18.807Z,17.30
2018-11-29T20:22:47.040Z,18.82
2018-11-29T20:25:17.355Z,15.78
2018-11-29T20:27:45.696Z,20.90
2018-11-29T20:30:16.283Z,13.90
2018-11-29T20:32:44.770Z,18.17
2018-11-29T20:35:13.367Z,17.40
2018-11-29T20:37:41.902Z,24.00
2018-11-29T20:40:11.884Z,18.62
2018-11-29T20:42:40.283Z,20.92
2018-11-29T20:45:12.079Z,20.57
2018-11-29T20:47:41.478Z,19.60
2018-11-29T20:50:14.719Z,20.00
2018-11-29T20:52:40.042Z,19.62
2018-11-29T20:56:39.976Z,19.37
2018-11-29T20:59:08.297Z,16.87
2018-11-29T21:01:36.642Z,20.48
2018-11-29T21:04:05.091Z,19.35
2018-11-29T21:06:33.410Z,18.98
2018-11-29T21:09:01.667Z,17.03
2018-11-29T21:11:29.905Z,18.45
2018-11-29T21:13:58.219Z,16.95
2018-11-29T21:16:27.336Z,21.80
2018-11-29T21:18:55.684Z,17.57
2018-11-29T21:21:24.141Z,19.45
2018-11-29T21:23:52.518Z,20.25
2018-11-29T21:26:20.790Z,18.48
2018-11-29T21:28:49.010Z,17.75
2018-11-29T21:31:17.278Z,16.65
2018-11-29T21:51:01.771Z,52.83
2018-11-29T21:53:30.068Z,25.92
2018-11-29T21:55:58.458Z,23.77
2018-11-29T21:58:26.871Z,19.07
2018-11-29T22:00:55.198Z,20.52
2018-11-29T22:03:23.543Z,20.72
2018-11-29T22:05:51.748Z,20.50
2018-11-29T22:08:20.022Z,18.48
2018-11-29T22:10:48.324Z,16.77
2018-11-29T22:13:16.677Z,18.12
2018-11-29T22:15:44.986Z,15.85
2018-11-29T22:18:19.163Z,17.90
2018-11-29T22:20:48.472Z,17.90
2018-11-29T22:23:16.788Z,18.00
2018-11-29T22:25:45.033Z,22.95
2018-11-29T22:28:13.275Z,21.05
2018-11-29T22:30:41.564Z,19.42
2018-11-29T22:33:09.826Z,19.70
2018-11-29T22:35:38.035Z,16.00
2018-11-29T22:38:07.048Z,16.45
2018-11-29T22:40:35.269Z,20.25
2018-11-29T22:43:03.482Z,18.80
2018-11-29T22:45:31.703Z,17.02
2018-11-29T22:47:59.925Z,16.23
2018-11-29T22:50:28.129Z,20.70
2018-11-29T22:52:56.479Z,14.18
2018-11-29T22:55:24.723Z,17.12
2018-11-29T22:57:52.936Z,17.85
2018-11-29T23:00:21.191Z,15.85
2018-11-29T23:02:49.917Z,22.48
2018-11-29T23:05:18.167Z,17.17
2018-11-29T23:07:46.432Z,15.98
2018-11-29T23:10:14.825Z,16.90
2018-11-29T23:12:43.170Z,14.68
2018-11-29T23:15:12.297Z,19.10
2018-11-29T23:17:40.644Z,15.30
2018-11-29T23:20:10.995Z,13.65
2018-11-29T23:22:39.962Z,15.35
2018-11-29T23:25:09.794Z,18.35
2018-11-29T23:27:38.120Z,16.30
2018-11-29T23:30:10.119Z,18.95
2018-11-29T23:32:38.315Z,17.10
2018-11-29T23:52:22.655Z,19.02
2018-11-29T23:54:50.882Z,21.93
2018-11-29T23:57:19.134Z,17.30
2018-11-29T23:59:47.411Z,15.03
